Time;durP1;ratioP1;P1;durP2;ratioP2;P2;SDS_P1;SDS_P2;PMS_P1;PMS_P2;Temp;Humidity;BMP_temperature;BMP_pressure;BME280_temperature;BME280_humidity;BME280_pressure;Samples;Min_cycle;Max_cycle;Signal;HPM_P1;HPM_P2
2021/07/30 00:00:30;;;;;;;6.57;2.10;;;17.60;99.90;;;;;;5016658;28;20022;-87
2021/07/30 00:02:56;;;;;;;5.70;2.75;;;17.80;99.90;;;;;;5034387;28;20034;-86
2021/07/30 00:05:21;;;;;;;3.53;2.05;;;17.70;99.90;;;;;;5016555;28;20029;-87
2021/07/30 00:07:47;;;;;;;3.60;2.40;;;17.30;99.90;;;;;;5016705;28;20031;-87
2021/07/30 00:10:13;;;;;;;5.20;2.17;;;17.30;99.90;;;;;;5016577;28;20018;-87
2021/07/30 00:12:39;;;;;;;4.63;2.30;;;17.20;99.90;;;;;;5016535;28;20024;-87
2021/07/30 00:15:06;;;;;;;7.30;2.28;;;17.30;99.90;;;;;;5034072;28;20474;-87
2021/07/30 00:17:32;;;;;;;5.38;2.22;;;17.40;99.90;;;;;;5016343;28;20027;-87
2021/07/30 00:19:59;;;;;;;6.93;2.28;;;17.50;99.90;;;;;;5016468;28;20033;-87
2021/07/30 00:22:25;;;;;;;5.28;2.05;;;17.40;99.90;;;;;;5016345;28;20025;-87
2021/07/30 00:24:51;;;;;;;5.68;2.30;;;17.60;99.90;;;;;;5016382;28;20112;-87
2021/07/30 00:27:17;;;;;;;5.15;2.00;;;17.30;99.90;;;;;;5016104;28;20026;-87
2021/07/30 00:29:43;;;;;;;3.00;2.22;;;17.30;99.90;;;;;;5016297;28;20026;-87
2021/07/30 00:32:09;;;;;;;5.40;2.33;;;17.40;99.90;;;;;;5015855;28;20022;-87
2021/07/30 00:34:35;;;;;;;8.23;2.92;;;17.40;99.90;;;;;;5016048;28;20374;-87
2021/07/30 00:37:00;;;;;;;2.30;2.10;;;17.80;99.90;;;;;;5015959;28;20075;-87
2021/07/30 00:39:26;;;;;;;2.88;2.17;;;17.80;99.90;;;;;;5028863;28;20048;-86
2021/07/30 00:41:52;;;;;;;2.50;2.00;;;17.90;99.90;;;;;;5036430;28;20032;-87
2021/07/30 00:44:17;;;;;;;3.90;2.67;;;17.90;99.90;;;;;;5035793;28;20397;-87
2021/07/30 00:46:43;;;;;;;3.50;2.30;;;17.70;99.90;;;;;;5036984;28;20421;-87
2021/07/30 00:49:09;;;;;;;4.68;2.35;;;17.70;99.90;;;;;;5054945;28;20021;-86
2021/07/30 00:51:36;;;;;;;6.28;2.65;;;17.50;99.90;;;;;;5037133;28;20021;-86
2021/07/30 00:54:02;;;;;;;5.55;2.50;;;17.40;99.90;;;;;;5037343;28;20024;-87
2021/07/30 00:56:29;;;;;;;4.13;2.17;;;17.10;99.90;;;;;;5037369;28;20396;-87
2021/07/30 00:58:55;;;;;;;6.80;2.38;;;16.90;99.90;;;;;;5037259;28;20048;-87
2021/07/30 01:01:21;;;;;;;5.18;2.35;;;17.00;99.90;;;;;;5036457;28;20480;-87
2021/07/30 01:03:47;;;;;;;8.90;2.80;;;17.00;99.90;;;;;;5037188;28;20527;-87
2021/07/30 01:06:12;;;;;;;6.15;2.53;;;17.00;99.90;;;;;;5036904;28;20021;-87
2021/07/30 01:08:38;;;;;;;7.95;2.45;;;17.00;99.90;;;;;;5037350;28;20025;-87
2021/07/30 01:11:04;;;;;;;3.45;2.30;;;17.00;99.90;;;;;;5036875;28;20114;-87
2021/07/30 01:13:30;;;;;;;3.63;2.38;;;17.00;99.90;;;;;;5037617;28;20076;-87
2021/07/30 01:15:55;;;;;;;3.55;2.35;;;17.00;99.90;;;;;;5041475;28;20032;-85
2021/07/30 01:18:21;;;;;;;2.75;2.28;;;17.00;99.90;;;;;;5056958;28;20060;-87
2021/07/30 01:21:07;;;;;;;5.50;2.20;;;17.30;99.90;;;;;;5038322;28;20028;-87
2021/07/30 01:23:33;;;;;;;4.55;2.30;;;17.00;99.90;;;;;;5055082;28;20029;-86
2021/07/30 01:25:59;;;;;;;4.47;2.47;;;17.00;99.90;;;;;;5037010;28;20071;-86
2021/07/30 01:28:30;;;;;;;4.30;2.60;;;17.30;99.90;;;;;;5055314;28;20021;-85
2021/07/30 01:30:56;;;;;;;3.40;2.53;;;17.40;99.90;;;;;;5036890;28;20075;-86
2021/07/30 01:33:21;;;;;;;4.30;2.60;;;17.20;99.90;;;;;;5037043;28;20033;-86
2021/07/30 01:35:48;;;;;;;9.15;2.58;;;17.00;99.90;;;;;;5054776;28;20032;-86
2021/07/30 01:38:13;;;;;;;9.43;2.40;;;17.00;99.90;;;;;;5051418;28;20025;-85
2021/07/30 01:40:39;;;;;;;2.75;2.30;;;16.90;99.90;;;;;;5016804;28;20064;-85
2021/07/30 01:43:04;;;;;;;4.25;2.70;;;16.70;99.90;;;;;;5034629;28;20053;-86
2021/07/30 01:45:30;;;;;;;3.30;2.30;;;16.90;99.90;;;;;;5017038;28;20079;-85
2021/07/30 01:47:56;;;;;;;3.78;2.35;;;16.70;99.90;;;;;;5017137;28;20032;-86
2021/07/30 01:50:21;;;;;;;4.70;2.70;;;16.60;99.90;;;;;;5017533;28;20044;-85
2021/07/30 01:52:47;;;;;;;3.90;2.55;;;16.70;99.90;;;;;;5017163;28;20018;-85
2021/07/30 01:55:13;;;;;;;4.35;2.60;;;16.70;99.90;;;;;;5016181;28;20497;-85
2021/07/30 01:57:38;;;;;;;5.28;2.67;;;16.70;99.90;;;;;;5016783;28;20496;-85
2021/07/30 02:00:05;;;;;;;7.80;2.72;;;16.70;99.90;;;;;;5016831;28;20393;-86
2021/07/30 02:02:33;;;;;;;6.38;2.33;;;16.70;99.90;;;;;;5019333;28;20036;-85
2021/07/30 02:05:02;;;;;;;4.93;2.55;;;16.60;99.90;;;;;;5021418;28;20116;-86
2021/07/30 02:07:28;;;;;;;4.53;2.50;;;16.60;99.90;;;;;;5038307;28;20029;-86
2021/07/30 02:09:54;;;;;;;3.05;2.35;;;16.70;99.90;;;;;;5020281;28;20022;-86
2021/07/30 02:12:20;;;;;;;4.68;2.33;;;16.80;99.90;;;;;;5019559;28;20025;-86
2021/07/30 02:14:47;;;;;;;6.18;2.47;;;16.80;99.90;;;;;;5020170;28;20155;-86
2021/07/30 02:17:13;;;;;;;8.27;2.55;;;16.70;99.90;;;;;;5020230;28;20025;-85
2021/07/30 02:19:38;;;;;;;3.17;2.22;;;16.90;99.90;;;;;;5020314;28;20374;-85
2021/07/30 02:22:04;;;;;;;3.65;2.58;;;16.80;99.90;;;;;;5020647;28;20358;-85
2021/07/30 02:24:30;;;;;;;3.35;2.40;;;16.80;99.90;;;;;;5020161;28;20088;-85
2021/07/30 02:26:55;;;;;;;3.50;2.38;;;16.70;99.90;;;;;;5037742;28;20025;-85
2021/07/30 02:29:21;;;;;;;4.35;2.40;;;16.70;99.90;;;;;;5019345;28;20025;-86
2021/07/30 02:31:50;;;;;;;2.97;2.08;;;16.70;99.90;;;;;;5019793;28;20032;-86
2021/07/30 02:34:16;;;;;;;3.75;2.60;;;16.80;99.90;;;;;;5037652;28;20107;-86
2021/07/30 02:36:43;;;;;;;7.10;2.67;;;16.30;99.90;;;;;;5037406;28;20034;-85
2021/07/30 02:39:09;;;;;;;9.18;2.75;;;16.40;99.90;;;;;;5037416;28;20053;-86
2021/07/30 02:41:34;;;;;;;6.10;2.70;;;16.20;99.90;;;;;;5019633;28;20059;-85
2021/07/30 02:44:00;;;;;;;8.10;2.45;;;16.40;99.90;;;;;;5019763;28;20021;-86
2021/07/30 02:46:26;;;;;;;8.55;2.97;;;16.50;99.90;;;;;;5018750;28;20030;-86
2021/07/30 02:48:52;;;;;;;6.80;2.65;;;16.70;99.90;;;;;;5019662;28;20022;-85
2021/07/30 02:51:18;;;;;;;4.70;2.72;;;16.70;99.90;;;;;;5019761;28;20049;-86
2021/07/30 02:53:44;;;;;;;4.03;2.58;;;16.60;99.90;;;;;;5019626;28;20075;-85
2021/07/30 02:56:10;;;;;;;3.85;2.28;;;16.70;99.90;;;;;;5037417;28;20028;-85
2021/07/30 02:58:38;;;;;;;6.68;2.60;;;16.50;99.90;;;;;;5019477;28;20112;-85
2021/07/30 03:01:05;;;;;;;4.53;2.60;;;16.50;99.90;;;;;;5019245;28;20120;-85
2021/07/30 03:03:31;;;;;;;5.40;2.42;;;16.40;99.90;;;;;;5036309;28;20029;-86
2021/07/30 03:06:00;;;;;;;4.03;2.55;;;16.30;99.90;;;;;;5019198;28;20076;-85
2021/07/30 03:08:27;;;;;;;2.38;2.17;;;16.20;99.90;;;;;;5019339;28;20045;-86
2021/07/30 03:10:53;;;;;;;3.90;2.75;;;16.30;99.90;;;;;;5019383;28;20029;-85
2021/07/30 03:13:19;;;;;;;5.50;2.60;;;16.30;99.90;;;;;;5018192;28;20029;-85
2021/07/30 03:15:44;;;;;;;4.43;2.83;;;16.40;99.90;;;;;;5018982;28;20022;-85
2021/07/30 03:18:10;;;;;;;6.15;2.70;;;16.20;99.90;;;;;;5019155;28;20469;-85
2021/07/30 03:20:36;;;;;;;3.97;2.90;;;16.20;99.90;;;;;;5018315;28;20021;-85
2021/07/30 03:23:01;;;;;;;2.97;2.50;;;16.20;99.90;;;;;;5018758;28;20041;-85
2021/07/30 03:25:27;;;;;;;7.90;2.63;;;16.30;99.90;;;;;;5024061;28;20159;-85
2021/07/30 03:27:53;;;;;;;3.13;2.50;;;16.70;99.90;;;;;;5041357;28;20076;-86
2021/07/30 03:30:19;;;;;;;5.70;2.47;;;16.50;99.90;;;;;;5020221;28;20053;-85
2021/07/30 03:32:44;;;;;;;5.38;2.63;;;16.50;99.90;;;;;;5019219;28;20022;-85
2021/07/30 03:35:11;;;;;;;8.90;3.00;;;16.40;99.90;;;;;;5019255;28;20021;-86
2021/07/30 03:37:36;;;;;;;6.43;2.50;;;16.10;99.90;;;;;;5035847;28;20100;-86
2021/07/30 03:40:03;;;;;;;3.78;2.80;;;16.50;99.90;;;;;;5036242;28;20064;-86
2021/07/30 03:42:29;;;;;;;4.93;2.60;;;16.30;99.90;;;;;;5036396;28;20516;-86
2021/07/30 03:44:55;;;;;;;6.55;2.80;;;16.10;99.90;;;;;;5018588;28;20019;-86
2021/07/30 03:47:21;;;;;;;5.05;2.50;;;15.80;99.90;;;;;;5018335;28;20105;-86
2021/07/30 03:49:47;;;;;;;3.33;2.42;;;15.70;99.90;;;;;;5018204;28;20025;-86
2021/07/30 03:52:12;;;;;;;4.38;2.75;;;15.80;99.90;;;;;;5018488;28;20148;-85
2021/07/30 03:54:38;;;;;;;3.13;2.50;;;16.00;99.90;;;;;;5035647;28;20422;-86
2021/07/30 03:57:04;;;;;;;7.53;2.60;;;15.80;99.90;;;;;;5036206;28;20091;-87
2021/07/30 03:59:30;;;;;;;8.63;2.50;;;16.00;99.90;;;;;;5018169;28;20030;-86
2021/07/30 04:01:56;;;;;;;6.40;2.85;;;16.20;99.90;;;;;;5018301;28;20037;-86
2021/07/30 04:04:21;;;;;;;3.67;2.40;;;16.00;99.90;;;;;;5018454;28;20029;-86
2021/07/30 04:06:47;;;;;;;5.88;2.45;;;16.00;99.90;;;;;;5018080;28;20036;-86
2021/07/30 04:09:14;;;;;;;6.22;2.47;;;16.10;99.90;;;;;;5017416;28;20021;-85
2021/07/30 04:11:41;;;;;;;8.30;2.30;;;15.80;99.90;;;;;;5017839;28;20029;-86
2021/07/30 04:14:07;;;;;;;5.30;2.45;;;15.90;99.90;;;;;;5017781;28;20060;-86
2021/07/30 04:16:34;;;;;;;5.03;2.58;;;16.00;99.90;;;;;;5017811;28;20028;-86
2021/07/30 04:19:01;;;;;;;6.03;2.55;;;16.20;99.90;;;;;;5018487;28;20189;-85
2021/07/30 04:21:27;;;;;;;4.90;2.50;;;16.30;99.90;;;;;;5017924;28;20022;-85
2021/07/30 04:23:54;;;;;;;6.10;2.25;;;16.40;99.90;;;;;;5017493;28;20041;-85
2021/07/30 04:26:20;;;;;;;7.75;2.50;;;16.50;99.90;;;;;;5016670;28;20083;-84
2021/07/30 04:28:46;;;;;;;6.03;2.60;;;16.60;99.90;;;;;;5016883;28;20057;-84
2021/07/30 04:31:12;;;;;;;3.78;2.40;;;16.80;99.90;;;;;;5016904;28;20075;-84
2021/07/30 04:33:38;;;;;;;5.30;2.33;;;16.70;99.90;;;;;;5000769;28;20099;-84
2021/07/30 04:36:04;;;;;;;3.33;2.30;;;16.50;99.90;;;;;;5017057;28;20029;-85
2021/07/30 04:38:29;;;;;;;9.25;2.70;;;16.50;99.90;;;;;;5021554;28;20041;-85
2021/07/30 04:40:55;;;;;;;3.17;2.42;;;16.50;99.90;;;;;;5055173;28;20412;-85
2021/07/30 04:43:21;;;;;;;4.00;2.40;;;16.40;99.90;;;;;;5036578;28;20098;-85
2021/07/30 04:45:46;;;;;;;3.80;2.50;;;16.40;99.90;;;;;;5055174;28;20021;-85
2021/07/30 04:48:12;;;;;;;4.55;2.45;;;16.60;99.90;;;;;;5037077;28;20498;-85
2021/07/30 04:50:37;;;;;;;6.95;2.70;;;16.60;99.90;;;;;;5036901;28;20021;-85
2021/07/30 04:53:03;;;;;;;4.30;2.50;;;16.70;99.90;;;;;;5036813;28;20155;-85
2021/07/30 04:55:29;;;;;;;3.67;2.30;;;16.50;99.90;;;;;;5054809;28;20029;-85
2021/07/30 04:57:55;;;;;;;6.70;2.45;;;16.50;99.90;;;;;;5036674;28;20492;-85
2021/07/30 05:00:22;;;;;;;3.55;2.45;;;16.20;99.90;;;;;;5036559;28;20472;-85
2021/07/30 05:02:51;;;;;;;6.05;2.45;;;16.20;99.90;;;;;;5037061;28;20032;-85
2021/07/30 05:05:17;;;;;;;4.43;2.58;;;16.10;99.90;;;;;;5037223;28;20029;-87
2021/07/30 05:07:44;;;;;;;2.85;2.58;;;15.80;99.90;;;;;;5020444;28;20025;-85
2021/07/30 05:10:11;;;;;;;3.97;2.38;;;16.20;99.90;;;;;;5054814;28;20464;-85
2021/07/30 05:12:36;;;;;;;6.40;2.70;;;16.00;99.90;;;;;;5036592;28;20027;-85
2021/07/30 05:15:03;;;;;;;6.97;2.72;;;16.00;99.90;;;;;;5036518;28;20111;-84
2021/07/30 05:17:29;;;;;;;7.25;2.72;;;16.20;99.90;;;;;;5036076;28;20029;-85
2021/07/30 05:19:54;;;;;;;4.40;2.63;;;16.30;99.90;;;;;;5036688;28;20112;-85
2021/07/30 05:22:20;;;;;;;4.60;2.63;;;16.50;99.90;;;;;;5036710;28;20032;-85
2021/07/30 05:24:46;;;;;;;4.68;2.42;;;16.60;99.90;;;;;;5036502;28;20025;-85
2021/07/30 05:27:11;;;;;;;2.75;2.40;;;16.50;99.90;;;;;;5036574;28;20082;-85
2021/07/30 05:29:37;;;;;;;6.03;2.80;;;16.40;99.90;;;;;;5053703;28;20103;-85
2021/07/30 05:32:03;;;;;;;4.03;2.30;;;16.40;99.90;;;;;;5036061;28;20017;-87
2021/07/30 05:34:30;;;;;;;3.88;2.40;;;16.30;99.90;;;;;;5057912;28;20017;-85
2021/07/30 05:36:56;;;;;;;4.32;2.83;;;16.30;99.90;;;;;;5042281;28;20468;-85
2021/07/30 05:39:21;;;;;;;8.25;2.63;;;16.40;99.90;;;;;;5047124;28;20060;-85
2021/07/30 05:41:47;;;;;;;3.95;2.58;;;16.60;99.90;;;;;;5020800;28;20036;-85
2021/07/30 05:44:13;;;;;;;3.53;2.60;;;16.80;99.90;;;;;;5020684;28;20079;-85
2021/07/30 05:46:39;;;;;;;4.20;2.53;;;16.90;99.90;;;;;;5037946;28;20083;-85
2021/07/30 05:49:06;;;;;;;3.97;2.97;;;16.80;99.90;;;;;;5019940;28;20030;-86
2021/07/30 05:51:33;;;;;;;5.75;2.60;;;16.90;99.90;;;;;;5020221;28;20537;-85
2021/07/30 05:53:59;;;;;;;3.20;2.65;;;17.00;99.90;;;;;;5020311;28;20025;-85
2021/07/30 05:56:25;;;;;;;3.10;2.60;;;17.00;99.90;;;;;;5020695;28;20026;-85
2021/07/30 05:58:50;;;;;;;5.35;2.80;;;17.10;99.90;;;;;;5020311;28;20079;-85
2021/07/30 06:01:16;;;;;;;5.40;2.88;;;17.10;99.90;;;;;;5020597;28;20025;-85
2021/07/30 06:03:42;;;;;;;4.13;2.53;;;17.20;99.90;;;;;;5019828;28;20036;-85
2021/07/30 06:06:08;;;;;;;4.20;2.60;;;17.20;99.90;;;;;;5037621;28;20108;-85
2021/07/30 06:08:33;;;;;;;5.10;3.03;;;17.30;99.90;;;;;;5020044;28;20488;-85
2021/07/30 06:10:59;;;;;;;4.93;2.53;;;17.30;99.90;;;;;;5020359;28;20107;-85
2021/07/30 06:13:25;;;;;;;5.50;2.58;;;17.40;99.90;;;;;;5020206;28;20025;-85
2021/07/30 06:15:50;;;;;;;9.95;2.90;;;17.40;99.90;;;;;;5020195;28;20441;-85
2021/07/30 06:18:16;;;;;;;9.93;2.97;;;17.50;99.90;;;;;;5019925;28;20029;-85
2021/07/30 06:20:42;;;;;;;2.95;2.38;;;17.60;99.90;;;;;;5019708;28;20031;-85
2021/07/30 06:23:08;;;;;;;7.20;3.13;;;17.60;99.90;;;;;;5037460;28;20032;-85
2021/07/30 06:25:34;;;;;;;4.82;2.83;;;17.50;99.90;;;;;;5038049;28;20026;-86
2021/07/30 06:28:01;;;;;;;4.18;2.85;;;17.60;99.90;;;;;;5019849;28;20496;-85
2021/07/30 06:30:27;;;;;;;4.18;2.90;;;17.60;99.90;;;;;;5019948;28;20074;-85
2021/07/30 06:32:53;;;;;;;5.55;2.88;;;17.70;99.90;;;;;;5019972;28;20532;-85
2021/07/30 06:35:20;;;;;;;4.95;2.97;;;17.80;99.90;;;;;;5037092;28;20032;-85
2021/07/30 06:37:46;;;;;;;3.60;2.80;;;17.90;99.90;;;;;;5003273;28;20460;-85
2021/07/30 06:40:13;;;;;;;6.25;2.75;;;18.10;99.90;;;;;;5037627;28;20128;-85
2021/07/30 06:42:39;;;;;;;5.10;3.00;;;18.40;99.90;;;;;;5038846;28;20021;-85
2021/07/30 06:45:06;;;;;;;5.57;3.10;;;18.40;99.90;;;;;;5039242;28;20032;-85
2021/07/30 06:47:36;;;;;;;5.88;3.22;;;18.50;99.90;;;;;;5037163;28;20503;-85
2021/07/30 06:50:04;;;;;;;4.93;3.53;;;18.60;99.90;;;;;;5037498;28;20036;-85
2021/07/30 06:52:31;;;;;;;5.38;3.30;;;18.70;99.90;;;;;;5037599;28;20029;-84
2021/07/30 06:54:57;;;;;;;7.18;3.53;;;18.80;99.90;;;;;;5037676;28;20033;-85
2021/07/30 06:57:22;;;;;;;6.63;3.58;;;19.00;99.90;;;;;;5037697;28;20033;-85
2021/07/30 06:59:49;;;;;;;5.40;3.97;;;19.10;99.90;;;;;;5055694;28;20021;-84
2021/07/30 07:02:17;;;;;;;5.28;3.08;;;19.30;99.90;;;;;;5037523;28;20564;-84
2021/07/30 07:04:43;;;;;;;4.60;3.58;;;19.30;99.90;;;;;;5037401;28;20028;-84
2021/07/30 07:07:09;;;;;;;5.15;3.20;;;19.30;99.90;;;;;;5037365;28;20029;-84
2021/07/30 07:09:35;;;;;;;5.65;4.10;;;19.30;99.90;;;;;;5037321;28;20025;-84
2021/07/30 07:12:04;;;;;;;8.00;4.72;;;19.40;99.90;;;;;;5037331;28;20029;-85
2021/07/30 07:14:30;;;;;;;5.90;4.07;;;19.30;99.90;;;;;;5037346;28;20074;-87
2021/07/30 07:16:56;;;;;;;6.63;4.35;;;19.00;99.90;;;;;;5037284;28;20028;-87
2021/07/30 07:19:23;;;;;;;5.97;4.00;;;19.10;99.90;;;;;;5037026;28;20171;-86
2021/07/30 07:21:50;;;;;;;8.02;4.25;;;19.20;99.90;;;;;;5037140;28;20078;-86
2021/07/30 07:24:17;;;;;;;5.97;4.15;;;19.30;99.90;;;;;;5036940;28;20025;-86
2021/07/30 07:26:42;;;;;;;8.48;4.13;;;19.50;99.90;;;;;;5037139;28;20111;-87
2021/07/30 07:29:08;;;;;;;6.28;4.13;;;19.60;99.90;;;;;;5037425;28;20159;-88
2021/07/30 07:31:34;;;;;;;10.10;4.15;;;19.60;99.90;;;;;;5036942;28;20380;-88
2021/07/30 07:34:00;;;;;;;6.97;4.05;;;19.80;99.90;;;;;;5038067;28;20021;-87
2021/07/30 07:36:26;;;;;;;5.05;3.90;;;19.80;99.90;;;;;;5036802;28;20060;-87
2021/07/30 07:38:51;;;;;;;6.15;4.05;;;20.00;99.90;;;;;;5036769;28;20079;-88
2021/07/30 07:41:17;;;;;;;6.50;4.18;;;19.90;99.90;;;;;;5036983;28;20021;-88
2021/07/30 07:43:43;;;;;;;10.20;4.25;;;20.10;99.90;;;;;;5038146;28;20385;-88
2021/07/30 07:46:10;;;;;;;7.03;4.18;;;20.10;99.90;;;;;;5038635;28;20051;-88
2021/07/30 07:48:35;;;;;;;9.88;4.00;;;20.20;99.90;;;;;;5037467;28;20071;-88
2021/07/30 07:51:01;;;;;;;6.22;3.38;;;20.30;99.90;;;;;;5054939;28;20021;-88
2021/07/30 07:53:27;;;;;;;5.90;4.00;;;20.50;99.90;;;;;;5054792;28;20025;-87
2021/07/30 07:56:03;;;;;;;9.90;3.90;;;20.70;99.90;;;;;;5036682;28;20029;-87
2021/07/30 07:58:30;;;;;;;9.30;3.58;;;20.80;99.90;;;;;;5036472;28;20029;-88
2021/07/30 08:00:56;;;;;;;6.85;3.95;;;20.80;99.90;;;;;;5037211;28;20060;-89
2021/07/30 08:03:22;;;;;;;9.85;3.80;;;21.00;99.90;;;;;;5036555;28;20107;-89
2021/07/30 08:05:48;;;;;;;10.30;3.55;;;21.20;99.90;;;;;;5037119;28;20021;-88
2021/07/30 08:08:13;;;;;;;6.43;3.75;;;21.30;99.90;;;;;;5036383;28;20155;-88
2021/07/30 08:10:39;;;;;;;7.55;3.55;;;21.30;99.90;;;;;;5036963;28;20025;-87
2021/07/30 08:13:05;;;;;;;9.20;3.95;;;21.30;99.90;;;;;;5054078;28;20021;-87
2021/07/30 08:15:32;;;;;;;5.63;3.67;;;21.30;99.90;;;;;;5036518;28;20079;-88
2021/07/30 08:17:57;;;;;;;6.68;3.53;;;21.20;99.90;;;;;;5036496;28;20558;-88
2021/07/30 08:20:23;;;;;;;8.15;4.10;;;21.40;99.90;;;;;;5054268;28;20025;-88
2021/07/30 08:22:49;;;;;;;7.25;3.45;;;21.50;99.90;;;;;;5036349;28;20029;-88
2021/07/30 08:25:15;;;;;;;9.57;4.15;;;21.50;99.90;;;;;;5036827;28;20025;-86
2021/07/30 08:27:41;;;;;;;11.38;4.13;;;21.50;99.90;;;;;;5036846;28;20603;-87
2021/07/30 08:30:07;;;;;;;7.53;4.28;;;21.70;99.90;;;;;;5036064;28;20044;-89
2021/07/30 08:32:33;;;;;;;9.25;4.35;;;21.70;99.90;;;;;;5053648;28;20021;-88
2021/07/30 08:35:00;;;;;;;5.10;3.33;;;21.80;99.90;;;;;;5036105;28;20093;-88
2021/07/30 08:37:25;;;;;;;6.57;3.65;;;21.90;99.90;;;;;;5035737;28;20036;-88
2021/07/30 08:39:51;;;;;;;6.07;3.58;;;22.10;99.90;;;;;;5035782;28;20513;-88
2021/07/30 08:42:18;;;;;;;6.38;3.60;;;22.10;99.90;;;;;;5054307;28;20037;-88
2021/07/30 08:44:44;;;;;;;5.47;3.40;;;22.30;99.90;;;;;;5036358;28;20025;-88
2021/07/30 08:47:12;;;;;;;6.25;3.25;;;22.30;99.90;;;;;;5054131;28;20028;-89
2021/07/30 08:49:38;;;;;;;5.00;3.42;;;22.60;99.90;;;;;;5035726;28;20025;-88
2021/07/30 08:52:12;;;;;;;5.38;3.83;;;22.80;99.90;;;;;;5035561;28;20028;-86
2021/07/30 08:54:39;;;;;;;4.50;3.55;;;23.00;99.90;;;;;;5035840;28;20021;-86
2021/07/30 08:57:11;;;;;;;8.32;3.38;;;23.20;99.90;;;;;;5035600;28;20123;-90
2021/07/30 08:59:41;;;;;;;5.47;3.70;;;23.40;99.90;;;;;;5035905;28;20547;-88
2021/07/30 09:02:08;;;;;;;10.52;3.50;;;23.30;99.90;;;;;;5035544;28;20025;-87
2021/07/30 09:04:35;;;;;;;5.80;3.35;;;23.50;99.90;;;;;;5035789;28;20115;-88
2021/07/30 09:07:02;;;;;;;6.15;3.20;;;23.60;99.90;;;;;;5035395;28;20032;-87
2021/07/30 09:09:32;;;;;;;6.22;3.47;;;23.60;99.90;;;;;;5035551;28;20021;-88
2021/07/30 09:11:59;;;;;;;4.65;3.45;;;23.90;99.90;;;;;;5034847;28;20496;-88
2021/07/30 09:14:36;;;;;;;8.73;3.45;;;24.10;99.90;;;;;;5035878;28;20055;-89
2021/07/30 09:17:03;;;;;;;6.80;3.47;;;24.10;99.90;;;;;;5053362;28;20028;-89
2021/07/30 09:19:29;;;;;;;6.35;3.95;;;24.20;99.90;;;;;;5036494;28;20026;-88
2021/07/30 09:22:09;;;;;;;6.85;3.65;;;24.30;99.90;;;;;;5053891;28;20025;-89
2021/07/30 09:24:36;;;;;;;7.63;3.50;;;24.20;99.90;;;;;;5052056;28;20140;-88
2021/07/30 09:27:03;;;;;;;5.18;3.50;;;24.40;99.90;;;;;;5035582;28;20493;-89
2021/07/30 09:29:32;;;;;;;6.10;3.60;;;24.50;99.90;;;;;;5035525;28;20484;-87
2021/07/30 09:32:00;;;;;;;5.38;3.63;;;24.70;99.90;;;;;;5035644;28;20100;-87
2021/07/30 09:34:40;;;;;;;5.60;3.65;;;24.70;99.90;;;;;;5036906;28;20021;-88
2021/07/30 09:37:21;;;;;;;4.45;3.58;;;25.00;99.90;;;;;;5035360;28;20393;-88
2021/07/30 09:39:49;;;;;;;5.28;3.63;;;25.20;99.90;;;;;;5034930;28;20053;-87
2021/07/30 09:42:20;;;;;;;5.40;3.60;;;25.30;99.90;;;;;;5035319;28;20032;-87
2021/07/30 09:45:00;;;;;;;7.22;3.85;;;25.30;99.90;;;;;;5035050;28;20025;-87
2021/07/30 09:47:33;;;;;;;6.32;3.95;;;25.50;99.90;;;;;;5035034;28;20032;-87
2021/07/30 09:50:07;;;;;;;7.53;3.97;;;25.70;99.90;;;;;;5035667;28;20393;-89
2021/07/30 09:52:37;;;;;;;4.15;3.42;;;25.60;99.90;;;;;;5035460;28;20091;-90
2021/07/30 09:55:13;;;;;;;6.13;3.40;;;25.50;99.90;;;;;;5035239;28;20040;-88
2021/07/30 09:57:40;;;;;;;8.57;3.63;;;25.50;99.90;;;;;;5035770;28;20043;-89
2021/07/30 10:00:07;;;;;;;5.10;3.45;;;25.70;99.90;;;;;;5035529;28;20029;-87
2021/07/30 10:02:35;;;;;;;5.72;3.90;;;25.60;99.90;;;;;;5035572;28;20048;-91
2021/07/30 10:05:02;;;;;;;4.13;3.10;;;25.90;99.90;;;;;;5034868;28;20025;-88
2021/07/30 10:07:29;;;;;;;6.22;3.95;;;26.10;99.90;;;;;;5036092;28;20028;-88
2021/07/30 10:12:38;;;;;;;7.53;3.80;;;26.40;99.90;;;;;;5053784;28;20044;-88
2021/07/30 10:15:06;;;;;;;11.18;4.00;;;26.70;99.90;;;;;;5035309;28;20067;-88
2021/07/30 10:17:33;;;;;;;6.25;3.50;;;26.40;99.90;;;;;;5034880;28;20412;-87
2021/07/30 10:20:07;;;;;;;4.75;3.58;;;26.10;99.90;;;;;;5035253;28;20021;-90
2021/07/30 10:23:05;;;;;;;10.85;3.67;;;26.10;99.90;;;;;;5036241;28;20063;-89
2021/07/30 10:25:32;;;;;;;4.82;3.60;;;25.80;99.90;;;;;;5038601;28;20032;-89
2021/07/30 10:28:11;;;;;;;6.65;3.90;;;25.60;99.90;;;;;;5038387;28;20025;-89
2021/07/30 10:30:52;;;;;;;6.50;3.80;;;25.80;99.90;;;;;;5039245;28;20487;-87
2021/07/30 10:33:30;;;;;;;4.45;3.10;;;25.80;99.90;;;;;;5038217;28;20052;-87
2021/07/30 10:35:57;;;;;;;8.70;3.90;;;25.90;99.90;;;;;;5037799;28;20021;-88
2021/07/30 10:38:24;;;;;;;4.10;3.15;;;26.30;99.90;;;;;;5038258;28;20130;-87
2021/07/30 10:40:56;;;;;;;8.10;3.60;;;26.30;99.90;;;;;;5038106;28;20390;-88
2021/07/30 10:43:27;;;;;;;6.72;3.60;;;26.40;99.90;;;;;;5037951;28;20036;-89
2021/07/30 10:46:07;;;;;;;5.72;3.40;;;27.10;99.90;;;;;;5038076;28;20035;-89
2021/07/30 10:48:37;;;;;;;5.03;3.60;;;27.60;99.90;;;;;;5037698;28;20504;-87
2021/07/30 10:51:27;;;;;;;8.02;3.65;;;27.50;99.90;;;;;;5038217;28;20021;-89
2021/07/30 10:53:57;;;;;;;5.40;3.60;;;27.30;99.90;;;;;;5037824;28;20025;-88
2021/07/30 10:56:23;;;;;;;6.18;3.60;;;26.90;99.90;;;;;;5037862;28;20396;-88
2021/07/30 10:58:56;;;;;;;4.50;3.88;;;26.50;99.90;;;;;;5037735;28;20055;-88
2021/07/30 11:01:43;;;;;;;6.47;3.50;;;26.20;99.90;;;;;;5037752;28;20033;-89
2021/07/30 11:04:10;;;;;;;5.90;3.60;;;26.20;99.90;;;;;;5037320;28;20272;-90
2021/07/30 11:06:42;;;;;;;4.65;3.58;;;26.70;99.90;;;;;;5037556;28;20118;-88
2021/07/30 11:09:08;;;;;;;5.22;3.50;;;27.30;99.90;;;;;;5037503;28;20032;-87
2021/07/30 11:11:54;;;;;;;5.53;3.97;;;27.00;99.90;;;;;;5037909;28;20066;-88
2021/07/30 11:14:32;;;;;;;5.45;3.45;;;26.60;99.90;;;;;;5037514;28;20481;-88
2021/07/30 11:17:09;;;;;;;5.93;3.85;;;26.50;99.90;;;;;;5037416;28;20024;-87
2021/07/30 11:19:36;;;;;;;6.03;3.95;;;26.60;99.90;;;;;;5037484;28;20467;-88
2021/07/30 11:22:07;;;;;;;8.38;3.78;;;26.50;99.90;;;;;;5037217;28;20063;-88
2021/07/30 11:24:47;;;;;;;5.63;3.92;;;26.40;99.90;;;;;;5037238;28;20476;-88
2021/07/30 11:27:17;;;;;;;4.53;3.47;;;26.20;99.90;;;;;;5037869;28;20025;-88
2021/07/30 11:29:44;;;;;;;4.78;3.70;;;26.20;99.90;;;;;;5037822;28;20025;-88
2021/07/30 11:32:16;;;;;;;5.47;3.78;;;26.50;99.90;;;;;;5037404;28;20031;-88
2021/07/30 11:34:46;;;;;;;6.93;3.90;;;26.10;99.90;;;;;;5036303;28;20025;-88
2021/07/30 11:37:16;;;;;;;8.85;3.55;;;25.90;99.90;;;;;;5036862;28;20040;-88
2021/07/30 11:39:44;;;;;;;5.32;4.15;;;25.70;99.90;;;;;;5036819;28;20140;-88
2021/07/30 11:42:28;;;;;;;5.38;3.90;;;25.60;99.90;;;;;;5036869;28;20530;-88
2021/07/30 11:44:56;;;;;;;5.45;3.85;;;26.10;99.90;;;;;;5036999;28;20104;-89
2021/07/30 11:47:22;;;;;;;9.65;3.63;;;27.10;99.90;;;;;;5036864;28;20050;-89
2021/07/30 11:50:00;;;;;;;6.07;3.88;;;27.60;99.90;;;;;;5039463;28;20105;-88
2021/07/30 11:52:28;;;;;;;5.07;3.58;;;28.00;99.90;;;;;;5039274;28;20400;-89
2021/07/30 11:54:54;;;;;;;6.00;3.83;;;28.20;99.90;;;;;;5036598;28;20059;-88
2021/07/30 11:57:29;;;;;;;4.13;3.55;;;27.50;99.90;;;;;;5036929;28;20029;-88
2021/07/30 11:59:57;;;;;;;7.18;4.03;;;27.40;99.90;;;;;;5039839;28;20029;-88
2021/07/30 12:02:26;;;;;;;5.35;3.80;;;26.90;99.90;;;;;;5037785;28;20547;-89
2021/07/30 12:04:54;;;;;;;9.13;4.40;;;26.50;99.90;;;;;;5036743;28;20491;-88
2021/07/30 12:07:36;;;;;;;6.75;4.25;;;26.10;99.90;;;;;;5036531;28;20033;-88
2021/07/30 12:10:06;;;;;;;5.28;4.40;;;25.60;99.90;;;;;;5036637;28;20021;-88
2021/07/30 12:12:37;;;;;;;6.07;4.40;;;25.50;99.90;;;;;;5036370;28;20060;-88
2021/07/30 12:15:03;;;;;;;6.22;4.15;;;25.70;99.90;;;;;;5036397;28;20468;-89
2021/07/30 12:17:30;;;;;;;8.05;4.15;;;25.70;99.90;;;;;;5036573;28;20032;-89
2021/07/30 12:20:05;;;;;;;6.63;4.25;;;26.20;99.90;;;;;;5036280;28;20025;-88
2021/07/30 12:22:38;;;;;;;8.45;4.50;;;26.30;99.90;;;;;;5036258;28;20480;-88
2021/07/30 12:25:05;;;;;;;7.63;4.38;;;26.20;99.90;;;;;;5036786;28;20081;-89
2021/07/30 12:27:31;;;;;;;5.47;4.20;;;26.30;99.90;;;;;;5054177;28;20021;-89
2021/07/30 12:29:57;;;;;;;7.90;4.30;;;26.30;99.90;;;;;;5035818;28;20028;-88
2021/07/30 12:32:25;;;;;;;5.28;3.90;;;26.10;99.90;;;;;;5053735;28;20052;-88
2021/07/30 12:35:00;;;;;;;8.48;4.50;;;25.80;99.90;;;;;;5035749;28;20025;-88
2021/07/30 12:37:28;;;;;;;5.40;4.47;;;25.70;99.90;;;;;;5053622;28;20131;-89
2021/07/30 12:39:59;;;;;;;7.07;3.95;;;25.60;99.90;;;;;;5035591;28;20049;-89
2021/07/30 12:42:30;;;;;;;8.85;4.35;;;25.50;99.90;;;;;;5053747;28;20036;-88
2021/07/30 12:45:03;;;;;;;8.07;4.57;;;25.70;99.90;;;;;;5035882;28;20041;-89
2021/07/30 12:47:29;;;;;;;9.50;4.07;;;26.00;99.90;;;;;;5054505;28;20477;-88
2021/07/30 12:49:55;;;;;;;5.60;3.95;;;26.60;99.90;;;;;;5037766;28;20116;-88